Time;durP1;ratioP1;P1;durP2;ratioP2;P2;SDS_P1;SDS_P2;PMS_P1;PMS_P2;Temp;Humidity;BMP_temperature;BMP_pressure;BME280_temperature;BME280_humidity;BME280_pressure;Samples;Min_cycle;Max_cycle;Signal;HPM_P1;HPM_P2
2022/08/08 00:00:58;;;;;;;;;;;;;;;21.41;64.77;99764.19;5054262;28;19931;-69
2022/08/08 00:03:42;;;;;;;;;;;;;;;21.37;65.11;99771.88;5053103;28;19931;-69
2022/08/08 00:06:20;;;;;;;;;;;;;;;21.31;65.26;99767.81;5054061;28;19924;-68
2022/08/08 00:09:00;;;;;;;;;;;;;;;21.27;65.52;99767.00;5053720;28;19934;-69
2022/08/08 00:11:26;;;;;;;;;;;;;;;21.28;65.33;99767.78;5054250;28;19971;-69
2022/08/08 00:14:22;;;;;;;;;;;;;;;21.28;65.65;99765.78;5053809;28;20477;-69
2022/08/08 00:17:22;;;;;;;;;;;;;;;21.28;65.61;99768.59;5053576;28;19947;-68
2022/08/08 00:20:08;;;;;;;;;;;;;;;21.28;65.57;99773.44;5054074;28;19932;-68
2022/08/08 00:22:50;;;;;;;;;;;;;;;21.28;65.57;99773.44;5044825;28;20370;-69
2022/08/08 00:25:20;;;;;;;;;;;;;;;21.27;65.55;99777.50;5033721;28;19933;-68
2022/08/08 00:27:49;;;;;;;;;;;;;;;21.27;65.45;99778.31;5033841;28;20035;-68
2022/08/08 00:30:17;;;;;;;;;;;;;;;21.22;65.81;99780.69;5033965;28;19933;-68
2022/08/08 00:33:01;;;;;;;;;;;;;;;21.15;66.16;99780.69;5033640;28;20384;-68
2022/08/08 00:35:30;;;;;;;;;;;;;;;21.09;66.17;99768.94;5033479;28;19937;-68
2022/08/08 00:37:59;;;;;;;;;;;;;;;21.10;66.20;99775.38;5033216;28;19931;-68
2022/08/08 00:40:34;;;;;;;;;;;;;;;21.06;66.30;99780.22;5034499;28;19951;-68
2022/08/08 00:43:35;;;;;;;;;;;;;;;21.08;66.25;99777.81;5033245;28;20393;-67
2022/08/08 00:46:27;;;;;;;;;;;;;;;21.08;66.20;99780.66;5033312;28;19931;-69
2022/08/08 00:49:33;;;;;;;;;;;;;;;21.13;66.06;99788.75;5033561;28;19924;-68
2022/08/08 00:52:08;;;;;;;;;;;;;;;21.11;66.06;99786.31;5033396;28;19925;-68
2022/08/08 00:55:07;;;;;;;;;;;;;;;21.09;66.08;99782.25;5031722;28;20048;-68
2022/08/08 00:57:39;;;;;;;;;;;;;;;21.06;66.21;99783.88;5033237;28;20488;-68
2022/08/08 01:00:09;;;;;;;;;;;;;;;21.06;66.28;99785.88;5039158;28;19932;-68
2022/08/08 01:02:54;;;;;;;;;;;;;;;21.04;66.43;99779.81;5052822;28;19925;-68
2022/08/08 01:05:50;;;;;;;;;;;;;;;20.97;66.73;99788.25;5053069;28;19987;-72
2022/08/08 01:08:30;;;;;;;;;;;;;;;20.96;66.64;99784.63;5052729;28;19929;-66
2022/08/08 01:10:59;;;;;;;;;;;;;;;20.90;67.00;99788.22;5053303;28;19929;-66
2022/08/08 01:13:48;;;;;;;;;;;;;;;20.84;67.34;99779.28;5052971;28;20303;-66
2022/08/08 01:16:29;;;;;;;;;;;;;;;20.87;67.24;99789.00;5052771;28;19979;-67
2022/08/08 01:19:11;;;;;;;;;;;;;;;20.84;67.57;99786.97;5052544;28;19975;-66
2022/08/08 01:22:15;;;;;;;;;;;;;;;20.89;67.46;99783.75;5053199;28;19925;-67
2022/08/08 01:25:01;;;;;;;;;;;;;;;20.88;67.24;99776.47;5052587;28;19924;-67
2022/08/08 01:27:49;;;;;;;;;;;;;;;20.83;67.62;99777.66;5052794;28;19925;-66
2022/08/08 01:30:27;;;;;;;;;;;;;;;20.84;67.43;99781.31;5053087;28;19928;-65
2022/08/08 01:32:56;;;;;;;;;;;;;;;20.84;67.57;99776.44;5052775;28;20023;-66
2022/08/08 01:35:33;;;;;;;;;;;;;;;20.81;67.69;99782.09;5052672;28;20352;-64
2022/08/08 01:38:21;;;;;;;;;;;;;;;20.83;67.58;99780.47;5052661;28;19963;-64
2022/08/08 01:41:01;;;;;;;;;;;;;;;20.85;67.63;99783.75;5052473;28;19946;-64
2022/08/08 01:43:37;;;;;;;;;;;;;;;20.83;67.82;99779.66;5052383;28;19994;-65
2022/08/08 01:46:07;;;;;;;;;;;;;;;20.82;67.56;99776.03;5052303;28;20373;-66
2022/08/08 01:48:52;;;;;;;;;;;;;;;20.83;67.81;99786.13;5052530;28;20346;-65
2022/08/08 01:51:24;;;;;;;;;;;;;;;20.76;67.78;99779.63;5052577;28;19924;-65
2022/08/08 01:54:16;;;;;;;;;;;;;;;20.73;68.09;99771.94;5052099;28;19964;-65
2022/08/08 01:57:12;;;;;;;;;;;;;;;20.69;68.17;99771.13;5052141;28;19931;-65
2022/08/08 02:00:01;;;;;;;;;;;;;;;20.66;68.28;99771.91;5050798;28;19925;-65
2022/08/08 02:02:39;;;;;;;;;;;;;;;20.66;68.04;99775.53;5052455;28;19935;-64
2022/08/08 02:05:07;;;;;;;;;;;;;;;20.68;67.92;99778.78;5052227;28;19932;-64
2022/08/08 02:07:54;;;;;;;;;;;;;;;20.69;67.93;99773.94;5052339;28;19924;-64
2022/08/08 02:10:36;;;;;;;;;;;;;;;20.58;68.40;99778.72;5052464;28;20292;-69
2022/08/08 02:13:17;;;;;;;;;;;;;;;20.53;68.54;99794.03;5052533;28;20431;-67
2022/08/08 02:16:15;;;;;;;;;;;;;;;20.55;68.39;99776.66;5052714;28;20268;-67
2022/08/08 02:18:46;;;;;;;;;;;;;;;20.44;68.75;99781.44;5052822;28;19932;-68
2022/08/08 02:24:31;;;;;;;;;;;;;;;20.33;69.16;99780.53;5052142;28;19929;-68
2022/08/08 02:27:06;;;;;;;;;;;;;;;20.26;69.39;99783.31;5054755;28;20370;-72
2022/08/08 02:29:54;;;;;;;;;;;;;;;20.26;69.26;99783.31;5036436;28;19925;-73
2022/08/08 02:32:24;;;;;;;;;;;;;;;20.28;69.01;99783.72;5035754;28;20391;-72
2022/08/08 02:34:51;;;;;;;;;;;;;;;20.26;69.16;99786.13;5035486;28;19975;-73
2022/08/08 02:37:37;;;;;;;;;;;;;;;20.17;69.62;99786.47;5036225;28;19936;-65
2022/08/08 02:40:28;;;;;;;;;;;;;;;20.06;69.77;99790.34;5035749;28;19979;-65
2022/08/08 02:43:08;;;;;;;;;;;;;;;20.05;69.68;99791.56;5050742;28;20020;-65
2022/08/08 02:46:07;;;;;;;;;;;;;;;19.95;70.13;99799.56;5035580;28;19925;-65
2022/08/08 02:49:06;;;;;;;;;;;;;;;19.86;70.42;99804.72;5035332;28;20031;-66
2022/08/08 02:51:55;;;;;;;;;;;;;;;19.77;70.70;99809.84;5035323;28;19925;-67
2022/08/08 02:54:32;;;;;;;;;;;;;;;19.66;70.99;99810.97;5033746;28;19925;-67
2022/08/08 02:57:20;;;;;;;;;;;;;;;19.58;71.01;99821.34;5035501;28;19929;-67
2022/08/08 03:00:09;;;;;;;;;;;;;;;19.50;71.37;99816.00;5038924;28;20370;-67
2022/08/08 03:03:13;;;;;;;;;;;;;;;19.60;70.69;99823.78;5055223;28;19931;-67
2022/08/08 03:06:03;;;;;;;;;;;;;;;19.71;70.28;99825.53;5055189;28;19947;-68
2022/08/08 03:08:32;;;;;;;;;;;;;;;19.73;70.38;99822.31;5055147;28;19925;-68
2022/08/08 03:11:24;;;;;;;;;;;;;;;19.75;70.01;99828.41;5055130;28;19925;-66
2022/08/08 03:14:14;;;;;;;;;;;;;;;19.74;69.95;99830.41;5054851;28;20410;-67
2022/08/08 03:17:07;;;;;;;;;;;;;;;19.66;70.15;99828.69;5054958;28;19929;-67
2022/08/08 03:19:43;;;;;;;;;;;;;;;19.59;70.52;99837.09;5053679;28;19925;-67
2022/08/08 03:22:17;;;;;;;;;;;;;;;19.54;70.43;99839.44;5054841;28;19929;-67
2022/08/08 03:25:04;;;;;;;;;;;;;;;19.58;70.26;99838.28;5054623;28;20391;-67
2022/08/08 03:27:44;;;;;;;;;;;;;;;19.62;69.92;99844.78;5054830;28;19925;-73
2022/08/08 03:30:14;;;;;;;;;;;;;;;19.56;70.24;99846.31;5054428;28;19976;-73
2022/08/08 03:35:51;;;;;;;;;;;;;;;19.36;70.34;99847.66;5034667;28;19964;-74
2022/08/08 03:38:20;;;;;;;;;;;;;;;19.32;70.54;99846.81;5033571;28;19931;-73
2022/08/08 03:41:06;;;;;;;;;;;;;;;19.34;70.18;99849.25;5034292;28;19975;-73
2022/08/08 03:44:00;;;;;;;;;;;;;;;19.32;70.09;99860.09;5034271;28;19932;-73
2022/08/08 03:46:28;;;;;;;;;;;;;;;19.32;69.88;99858.09;5034559;28;19936;-75
2022/08/08 03:49:03;;;;;;;;;;;;;;;19.30;69.77;99871.78;5033147;28;20437;-74
2022/08/08 03:51:53;;;;;;;;;;;;;;;19.32;69.36;99863.75;5034531;28;19932;-74
2022/08/08 03:54:20;;;;;;;;;;;;;;;19.27;69.69;99875.34;5033934;28;19925;-74
2022/08/08 03:57:14;;;;;;;;;;;;;;;19.27;69.30;99871.75;5034272;28;19925;-74
2022/08/08 04:00:07;;;;;;;;;;;;;;;19.26;69.38;99879.34;5039063;28;19932;-73
2022/08/08 04:02:37;;;;;;;;;;;;;;;19.26;69.24;99878.53;5054028;28;19924;-74
2022/08/08 04:05:17;;;;;;;;;;;;;;;19.31;68.93;99879.06;5054004;28;19931;-74
2022/08/08 04:07:48;;;;;;;;;;;;;;;19.37;68.66;99880.34;5053860;28;20019;-74
2022/08/08 04:10:18;;;;;;;;;;;;;;;19.34;68.54;99883.13;5053885;28;19928;-73
2022/08/08 04:12:47;;;;;;;;;;;;;;;19.34;68.31;99881.13;5053595;28;19932;-74
2022/08/08 04:15:15;;;;;;;;;;;;;;;19.34;68.55;99880.28;5053675;28;19962;-74
2022/08/08 04:17:42;;;;;;;;;;;;;;;19.32;68.18;99877.84;5053556;28;19931;-65
2022/08/08 04:20:24;;;;;;;;;;;;;;;19.36;68.01;99881.53;5053650;28;19970;-65
2022/08/08 04:22:53;;;;;;;;;;;;;;;19.52;67.53;99878.50;5033732;28;19925;-65
2022/08/08 04:25:23;;;;;;;;;;;;;;;19.63;67.07;99880.25;5034348;28;19925;-65
2022/08/08 04:27:59;;;;;;;;;;;;;;;19.70;67.01;99880.38;5033350;28;19960;-65
2022/08/08 04:30:46;;;;;;;;;;;;;;;19.79;66.79;99888.53;5033642;28;19999;-65
2022/08/08 04:33:13;;;;;;;;;;;;;;;19.85;66.40;99899.09;5033355;28;19929;-65
2022/08/08 04:35:41;;;;;;;;;;;;;;;19.96;66.17;99891.53;5033803;28;19925;-66
2022/08/08 04:38:17;;;;;;;;;;;;;;;20.08;65.88;99892.47;5031738;28;19925;-65
2022/08/08 04:40:48;;;;;;;;;;;;;;;20.18;65.47;99895.44;5033340;28;19928;-65
2022/08/08 04:43:20;;;;;;;;;;;;;;;20.27;65.02;99897.94;5033279;28;20414;-65
2022/08/08 04:45:48;;;;;;;;;;;;;;;20.29;64.86;99899.19;5033312;28;19924;-66
2022/08/08 04:48:16;;;;;;;;;;;;;;;20.26;64.76;99907.63;5033161;28;19971;-66
2022/08/08 04:50:47;;;;;;;;;;;;;;;20.33;64.74;99907.69;5049411;28;19932;-66
2022/08/08 04:53:16;;;;;;;;;;;;;;;20.35;64.66;99910.94;5053050;28;19928;-66
2022/08/08 04:56:03;;;;;;;;;;;;;;;20.40;64.35;99913.41;5052962;28;20393;-67
2022/08/08 04:58:30;;;;;;;;;;;;;;;20.49;64.04;99916.75;5052979;28;19928;-66
2022/08/08 05:00:58;;;;;;;;;;;;;;;20.50;63.77;99909.88;5053166;28;19925;-68
2022/08/08 05:03:34;;;;;;;;;;;;;;;20.54;63.56;99913.56;5052728;28;20355;-67
2022/08/08 05:06:23;;;;;;;;;;;;;;;20.62;63.28;99903.91;5052268;28;20402;-68
2022/08/08 05:08:54;;;;;;;;;;;;;;;20.72;62.53;99908.88;5052804;28;19932;-67
2022/08/08 05:11:27;;;;;;;;;;;;;;;20.90;61.94;99909.81;5052641;28;19925;-67
2022/08/08 05:14:04;;;;;;;;;;;;;;;21.04;61.54;99912.75;5053260;28;19925;-75
2022/08/08 05:16:32;;;;;;;;;;;;;;;21.05;61.24;99914.41;5052911;28;20348;-74
2022/08/08 05:19:19;;;;;;;;;;;;;;;21.05;61.12;99914.41;5052823;28;19987;-74
2022/08/08 05:22:07;;;;;;;;;;;;;;;21.03;61.17;99908.31;5053211;28;19932;-67
2022/08/08 05:24:34;;;;;;;;;;;;;;;21.14;60.84;99904.34;5052849;28;19979;-68
2022/08/08 05:27:03;;;;;;;;;;;;;;;21.14;60.70;99909.22;5052375;28;19932;-67
2022/08/08 05:29:30;;;;;;;;;;;;;;;21.16;60.80;99912.44;5033882;28;19929;-67
2022/08/08 05:32:02;;;;;;;;;;;;;;;21.23;60.46;99912.50;5032357;28;19925;-67
2022/08/08 05:34:41;;;;;;;;;;;;;;;21.36;59.99;99910.97;5032758;28;19931;-67
2022/08/08 05:37:11;;;;;;;;;;;;;;;21.62;59.26;99910.69;5032851;28;20392;-67
2022/08/08 05:39:48;;;;;;;;;;;;;;;21.88;58.49;99913.28;5042841;28;19925;-66
2022/08/08 05:42:16;;;;;;;;;;;;;;;22.00;58.00;99915.75;5052724;28;20427;-66
2022/08/08 05:44:45;;;;;;;;;;;;;;;22.17;57.79;99920.63;5052433;28;19928;-65
2022/08/08 05:47:15;;;;;;;;;;;;;;;22.35;57.50;99926.34;5052607;28;19931;-65
2022/08/08 05:49:47;;;;;;;;;;;;;;;22.43;57.21;99931.63;5051210;28;20280;-65
2022/08/08 05:52:21;;;;;;;;;;;;;;;22.45;57.28;99922.72;5052464;28;19924;-65
2022/08/08 05:54:57;;;;;;;;;;;;;;;22.22;57.48;99922.25;5052300;28;19925;-65
2022/08/08 05:57:33;;;;;;;;;;;;;;;22.23;57.54;99932.41;5052515;28;19946;-66
2022/08/08 06:00:20;;;;;;;;;;;;;;;22.41;57.07;99922.69;5052439;28;19928;-65
2022/08/08 06:03:10;;;;;;;;;;;;;;;22.49;56.22;99930.00;5056311;28;19931;-66
2022/08/08 06:05:53;;;;;;;;;;;;;;;22.61;55.80;99921.13;5055874;28;19928;-66
2022/08/08 06:08:28;;;;;;;;;;;;;;;22.92;55.01;99931.66;5056216;28;19925;-65
2022/08/08 06:11:01;;;;;;;;;;;;;;;23.17;54.58;99935.31;5056171;28;20376;-65
2022/08/08 06:13:30;;;;;;;;;;;;;;;23.25;54.36;99927.63;5055965;28;19936;-65
2022/08/08 06:16:10;;;;;;;;;;;;;;;23.31;54.46;99938.19;5055827;28;19931;-65
2022/08/08 06:18:38;;;;;;;;;;;;;;;23.24;54.67;99943.06;5055735;28;19929;-65
2022/08/08 06:21:07;;;;;;;;;;;;;;;23.27;54.70;99948.72;5055948;28;19950;-66
2022/08/08 06:23:54;;;;;;;;;;;;;;;23.13;54.79;99950.72;5055799;28;19931;-66
2022/08/08 06:26:35;;;;;;;;;;;;;;;22.99;55.21;99948.72;5055708;28;19964;-67
2022/08/08 06:29:26;;;;;;;;;;;;;;;22.81;55.51;99947.91;5055757;28;19930;-65
2022/08/08 06:32:14;;;;;;;;;;;;;;;22.68;55.71;99937.38;5055418;28;19925;-74
2022/08/08 06:34:46;;;;;;;;;;;;;;;22.61;55.88;99945.84;5055229;28;19929;-75
2022/08/08 06:37:35;;;;;;;;;;;;;;;22.56;56.01;99952.72;5055381;28;19925;-76
2022/08/08 06:40:05;;;;;;;;;;;;;;;22.46;56.19;99961.19;5055524;28;19924;-76
2022/08/08 06:42:37;;;;;;;;;;;;;;;22.27;56.66;99968.03;5055696;28;20048;-76
2022/08/08 06:45:05;;;;;;;;;;;;;;;22.08;57.12;99965.53;5055202;28;19924;-76
2022/08/08 06:47:34;;;;;;;;;;;;;;;22.06;57.06;99970.00;5055222;28;19924;-75
2022/08/08 06:50:21;;;;;;;;;;;;;;;22.16;56.85;99967.19;5040889;28;19940;-75
2022/08/08 06:53:00;;;;;;;;;;;;;;;22.25;56.49;99976.13;5035012;28;20469;-75
2022/08/08 06:55:40;;;;;;;;;;;;;;;22.22;56.51;99974.09;5035669;28;20011;-76
2022/08/08 06:58:08;;;;;;;;;;;;;;;22.22;56.72;99965.59;5034888;28;20403;-75
2022/08/08 07:00:37;;;;;;;;;;;;;;;22.29;56.60;99971.28;5045135;28;19925;-74
2022/08/08 07:03:08;;;;;;;;;;;;;;;22.37;56.41;99974.94;5055177;28;19931;-75
2022/08/08 07:05:58;;;;;;;;;;;;;;;22.52;55.98;99968.94;5055778;28;19925;-75
2022/08/08 07:08:32;;;;;;;;;;;;;;;22.55;55.99;99968.13;5054155;28;20382;-75
2022/08/08 07:11:01;;;;;;;;;;;;;;;22.54;56.04;99969.34;5054799;28;20298;-76
2022/08/08 07:13:38;;;;;;;;;;;;;;;22.53;56.06;99967.72;5055104;28;19932;-76
2022/08/08 07:16:43;;;;;;;;;;;;;;;22.47;56.45;99969.28;5055219;28;20045;-76
2022/08/08 07:19:40;;;;;;;;;;;;;;;22.42;56.70;99975.38;5054736;28;19924;-76
2022/08/08 07:22:08;;;;;;;;;;;;;;;22.40;56.58;99971.28;5054622;28;19924;-75
2022/08/08 07:24:47;;;;;;;;;;;;;;;22.58;56.23;99973.00;5054817;28;19928;-74
2022/08/08 07:27:15;;;;;;;;;;;;;;;22.77;55.85;99969.75;5054830;28;20388;-76
2022/08/08 07:29:43;;;;;;;;;;;;;;;22.89;55.58;99977.88;5053079;28;19969;-75
2022/08/08 07:32:29;;;;;;;;;;;;;;;22.93;55.64;99975.88;5054481;28;20366;-66
2022/08/08 07:34:57;;;;;;;;;;;;;;;23.08;55.39;99974.66;5054283;28;19946;-67
2022/08/08 07:37:29;;;;;;;;;;;;;;;23.18;54.97;99988.03;5054350;28;19925;-67
2022/08/08 07:40:16;;;;;;;;;;;;;;;23.38;54.67;99984.81;5035926;28;20316;-66
2022/08/08 07:42:55;;;;;;;;;;;;;;;23.54;54.02;99990.84;5034440;28;19925;-74
2022/08/08 07:45:22;;;;;;;;;;;;;;;23.25;54.74;99990.91;5034810;28;20031;-75
2022/08/08 07:47:53;;;;;;;;;;;;;;;23.12;55.13;99995.31;5034304;28;19925;-75
2022/08/08 07:50:20;;;;;;;;;;;;;;;23.14;54.89;99989.25;5048455;28;20338;-75
2022/08/08 07:52:55;;;;;;;;;;;;;;;23.28;54.49;99990.09;5054060;28;19932;-74
2022/08/08 07:55:25;;;;;;;;;;;;;;;23.54;54.05;99990.84;5054425;28;19924;-75
2022/08/08 07:58:00;;;;;;;;;;;;;;;23.82;53.28;99993.63;5053982;28;19925;-75
2022/08/08 08:00:30;;;;;;;;;;;;;;;23.77;53.18;99988.38;5053563;28;19925;-75
2022/08/08 08:03:05;;;;;;;;;;;;;;;23.81;52.97;99997.69;5053880;28;19924;-75
2022/08/08 08:05:48;;;;;;;;;;;;;;;23.83;53.36;99987.53;5052531;28;20376;-75
2022/08/08 08:08:18;;;;;;;;;;;;;;;23.59;53.57;99987.63;5053786;28;20350;-75
2022/08/08 08:10:49;;;;;;;;;;;;;;;23.56;53.83;99985.59;5053912;28;19924;-75
2022/08/08 08:13:22;;;;;;;;;;;;;;;24.06;52.28;99985.03;5053794;28;19925;-75
2022/08/08 08:16:09;;;;;;;;;;;;;;;24.94;50.24;99984.56;5053853;28;19925;-75
2022/08/08 08:18:44;;;;;;;;;;;;;;;25.33;49.58;99976.50;5053356;28;20332;-75
2022/08/08 08:21:22;;;;;;;;;;;;;;;26.33;47.13;99975.78;5045007;28;19924;-75
2022/08/08 08:24:09;;;;;;;;;;;;;;;27.80;44.21;99984.00;5032880;28;19925;-75
2022/08/08 08:26:38;;;;;;;;;;;;;;;28.37;43.44;99977.94;5033539;28;20409;-75
2022/08/08 08:29:12;;;;;;;;;;;;;;;29.28;42.03;99978.66;5033387;28;19925;-77
2022/08/08 08:31:44;;;;;;;;;;;;;;;31.35;38.48;99974.59;5033703;28;19924;-75
2022/08/08 08:34:20;;;;;;;;;;;;;;;32.46;37.14;99986.16;5033432;28;19933;-75
2022/08/08 08:36:47;;;;;;;;;;;;;;;31.99;37.81;99979.69;5033626;28;20380;-75
2022/08/08 08:39:20;;;;;;;;;;;;;;;31.60;38.48;99986.03;5041031;28;19928;-73
2022/08/08 08:41:49;;;;;;;;;;;;;;;31.96;37.62;99986.38;5053672;28;20031;-75
2022/08/08 08:44:17;;;;;;;;;;;;;;;31.30;38.54;99983.78;5051991;28;20035;-74
2022/08/08 08:46:45;;;;;;;;;;;;;;;30.04;40.59;99988.50;5052921;28;19982;-75
2022/08/08 08:49:16;;;;;;;;;;;;;;;29.54;40.86;99977.56;5052836;28;19946;-74
2022/08/08 08:51:43;;;;;;;;;;;;;;;29.75;40.31;99982.75;5052973;28;19932;-75
2022/08/08 08:54:20;;;;;;;;;;;;;;;29.64;39.90;99976.53;5052850;28;20311;-74
2022/08/08 08:56:51;;;;;;;;;;;;;;;29.03;40.91;99981.31;5052998;28;19928;-74
2022/08/08 08:59:18;;;;;;;;;;;;;;;28.31;42.40;99988.31;5052726;28;19936;-74
2022/08/08 09:02:10;;;;;;;;;;;;;;;27.75;43.19;99986.56;5032945;28;19925;-75
2022/08/08 09:04:38;;;;;;;;;;;;;;;30.21;38.63;99978.59;5032923;28;19925;-68
2022/08/08 09:07:17;;;;;;;;;;;;;;;33.85;32.47;99977.06;5032762;28;19925;-69
2022/08/08 09:09:48;;;;;;;;;;;;;;;33.95;33.05;99976.59;5033072;28;19925;-69
2022/08/08 09:12:24;;;;;;;;;;;;;;;32.92;34.22;99979.38;5032670;28;19948;-74
2022/08/08 09:14:54;;;;;;;;;;;;;;;31.70;36.74;99973.31;5032813;28;19925;-74
2022/08/08 09:17:23;;;;;;;;;;;;;;;30.62;37.91;99984.31;5032874;28;19964;-75
2022/08/08 09:20:10;;;;;;;;;;;;;;;29.54;39.46;99976.78;5032947;28;19924;-74
2022/08/08 09:22:57;;;;;;;;;;;;;;;29.09;40.56;99981.63;5032777;28;19986;-74
2022/08/08 09:25:24;;;;;;;;;;;;;;;29.84;38.77;99968.56;5041473;28;19924;-76
2022/08/08 09:28:12;;;;;;;;;;;;;;;31.64;35.45;99981.75;5051569;28;19925;-77
2022/08/08 09:31:04;;;;;;;;;;;;;;;30.54;37.36;99988.66;5052069;28;19925;-76
2022/08/08 09:33:40;;;;;;;;;;;;;;;29.25;39.51;99990.22;5051612;28;19925;-76
2022/08/08 09:36:31;;;;;;;;;;;;;;;28.29;41.45;99993.66;5053650;28;19925;-77
2022/08/08 09:39:02;;;;;;;;;;;;;;;27.81;41.96;99994.22;5051397;28;19925;-77
2022/08/08 09:41:41;;;;;;;;;;;;;;;27.63;42.34;99990.88;5048460;28;19989;-77
2022/08/08 09:44:34;;;;;;;;;;;;;;;27.75;41.80;99992.28;5056112;28;20299;-77
2022/08/08 09:47:06;;;;;;;;;;;;;;;27.56;42.08;99996.72;5060420;28;19925;-76
2022/08/08 09:49:56;;;;;;;;;;;;;;;27.44;42.09;99996.53;5048978;28;19925;-76
2022/08/08 09:52:31;;;;;;;;;;;;;;;27.60;41.67;99997.47;5036200;28;20363;-78
2022/08/08 09:55:18;;;;;;;;;;;;;;;27.67;41.67;99996.50;5036549;28;19933;-77
2022/08/08 09:58:06;;;;;;;;;;;;;;;27.72;41.79;99993.16;5036149;28;19924;-77
2022/08/08 10:00:36;;;;;;;;;;;;;;;27.90;41.29;99994.47;5045983;28;20019;-77
2022/08/08 10:03:26;;;;;;;;;;;;;;;27.55;42.18;99991.44;5055789;28;19925;-77
2022/08/08 10:05:57;;;;;;;;;;;;;;;27.24;42.60;99993.59;5056576;28;20333;-77
2022/08/08 10:08:24;;;;;;;;;;;;;;;27.34;42.23;99983.22;5056506;28;19962;-78
2022/08/08 10:10:57;;;;;;;;;;;;;;;27.44;42.17;99982.25;5056127;28;19924;-76
2022/08/08 10:13:27;;;;;;;;;;;;;;;27.18;42.45;99991.66;5053404;28;19947;-77
2022/08/08 10:16:00;;;;;;;;;;;;;;;26.38;44.03;99998.13;5055615;28;19929;-76
2022/08/08 10:18:34;;;;;;;;;;;;;;;25.86;45.19;99999.56;5056065;28;20364;-78
2022/08/08 10:21:03;;;;;;;;;;;;;;;25.45;46.15;100000.81;5055678;28;19929;-77
2022/08/08 10:23:50;;;;;;;;;;;;;;;24.84;47.84;100008.22;5055735;28;19932;-77
2022/08/08 10:26:24;;;;;;;;;;;;;;;24.55;48.04;100001.06;5055959;28;19975;-77
2022/08/08 10:29:01;;;;;;;;;;;;;;;24.69;47.53;100001.78;5058284;28;19932;-77
2022/08/08 10:34:17;;;;;;;;;;;;;;;25.36;46.36;100004.16;5060549;28;19949;-78
2022/08/08 10:36:47;;;;;;;;;;;;;;;25.48;45.98;100000.78;5075211;28;19950;-78
2022/08/08 10:39:17;;;;;;;;;;;;;;;25.48;46.00;100003.63;5061357;28;19928;-78
2022/08/08 10:41:56;;;;;;;;;;;;;;;25.67;45.84;100000.19;5050725;28;20406;-78
2022/08/08 10:44:41;;;;;;;;;;;;;;;26.00;45.40;100005.16;5056639;28;19928;-79
2022/08/08 10:47:15;;;;;;;;;;;;;;;26.13;45.31;100008.25;5062754;28;20294;-79
2022/08/08 10:50:06;;;;;;;;;;;;;;;25.75;46.05;100010.28;5059671;28;20343;-78
2022/08/08 10:52:37;;;;;;;;;;;;;;;25.67;46.15;99997.34;5048825;28;19924;-78
2022/08/08 10:55:06;;;;;;;;;;;;;;;25.47;46.67;99996.31;5055468;28;20307;-78
2022/08/08 10:57:40;;;;;;;;;;;;;;;25.13;47.28;99995.38;5055447;28;20090;-78
2022/08/08 11:00:20;;;;;;;;;;;;;;;24.80;47.82;99987.50;5054900;28;19948;-77
2022/08/08 11:02:49;;;;;;;;;;;;;;;24.83;47.83;99990.31;5059041;28;19925;-78
2022/08/08 11:05:16;;;;;;;;;;;;;;;24.91;47.76;99991.91;5057397;28;19931;-78
2022/08/08 11:07:48;;;;;;;;;;;;;;;24.99;47.74;99998.34;5053288;28;19925;-68
2022/08/08 11:10:35;;;;;;;;;;;;;;;24.66;48.36;99999.78;5059462;28;20031;-66
2022/08/08 11:13:01;;;;;;;;;;;;;;;24.50;48.67;99998.63;5069410;28;19983;-65
2022/08/08 11:16:39;;;;;;;;;;;;;;;24.47;48.51;99988.09;5045865;27;19966;-66
2022/08/08 11:19:06;;;;;;;;;;;;;;;24.72;47.88;99988.78;5071240;28;20030;-69
2022/08/08 11:21:44;;;;;;;;;;;;;;;25.04;47.39;99990.16;5080311;28;19940;-68
2022/08/08 11:24:24;;;;;;;;;;;;;;;24.94;47.84;99984.56;5064989;28;20395;-67
2022/08/08 11:26:51;;;;;;;;;;;;;;;24.71;47.99;99992.84;5071852;28;19928;-77
2022/08/08 11:29:25;;;;;;;;;;;;;;;24.48;48.93;100006.78;5077255;28;20028;-67
2022/08/08 11:32:13;;;;;;;;;;;;;;;24.26;49.22;100008.09;5070951;28;20341;-66
2022/08/08 11:34:42;;;;;;;;;;;;;;;24.22;49.23;100010.16;5049739;28;23434;-66
2022/08/08 11:38:24;;;;;;;10.27;7.35;;;;;;;24.32;48.79;100014.97;5067169;28;20898;-74
2022/08/08 11:41:03;;;;;;;13.65;6.63;;;;;;;24.35;48.72;100008.47;5054738;28;20045;-75
2022/08/08 11:43:31;;;;;;;20.48;6.60;;;;;;;24.34;48.81;100001.16;5048256;28;20052;-75
2022/08/08 11:46:08;;;;;;;8.93;6.32;;;;;;;24.49;48.50;99997.03;5045727;28;20048;-67
2022/08/08 11:48:45;;;;;;;21.67;9.75;;;;;;;24.59;48.78;99996.16;5054481;28;20480;-67
2022/08/08 11:51:20;;;;;;;21.10;6.53;;;;;;;24.48;48.60;100001.09;5043399;28;20045;-68
2022/08/08 11:54:07;;;;;;;13.70;6.25;;;;;;;24.36;49.25;99993.00;5040657;28;20045;-66
2022/08/08 11:56:54;;;;;;;15.65;6.47;;;;;;;24.29;48.92;99993.06;5036951;28;20140;-74
2022/08/08 11:59:31;;;;;;;11.15;6.38;;;;;;;24.50;48.91;99990.09;5045929;28;20076;-75
2022/08/08 12:02:24;;;;;;;11.30;7.25;;;;;;;24.55;48.62;99996.19;5043895;28;20567;-68
2022/08/08 12:05:09;;;;;;;10.00;5.50;;;;;;;24.57;48.41;99993.72;5038910;28;20113;-66
2022/08/08 12:07:50;;;;;;;10.50;5.63;;;;;;;24.59;48.36;99984.75;5046253;28;20084;-67
2022/08/08 12:10:20;;;;;;;12.10;5.93;;;;;;;24.38;49.07;99993.41;5042169;28;20470;-75
2022/08/08 12:12:49;;;;;;;8.18;5.53;;;;;;;24.13;49.24;99995.59;5035738;28;20049;-75
2022/08/08 12:15:28;;;;;;;20.02;6.60;;;;;;;24.03;49.89;99987.91;5037292;28;20049;-75
2022/08/08 12:17:55;;;;;;;10.63;6.15;;;;;;;24.03;49.61;99990.72;5043964;28;20046;-74
2022/08/08 12:20:23;;;;;;;12.05;5.50;;;;;;;24.03;49.63;99990.72;5033890;28;20091;-75
2022/08/08 12:22:51;;;;;;;10.27;5.75;;;;;;;24.16;49.56;99981.34;5048713;28;20523;-67
2022/08/08 12:25:20;;;;;;;6.95;5.32;;;;;;;24.22;49.27;99995.94;5049601;28;20056;-67
2022/08/08 12:28:11;;;;;;;15.15;5.35;;;;;;;24.05;49.56;99999.66;5048667;28;20489;-66
2022/08/08 12:30:43;;;;;;;6.13;4.78;;;;;;;23.89;50.10;99988.72;5037424;28;20509;-66
2022/08/08 12:33:17;;;;;;;8.15;5.30;;;;;;;23.77;50.22;100000.53;5048790;28;20573;-67
2022/08/08 12:35:47;;;;;;;9.98;5.03;;;;;;;23.81;50.41;99994.84;5030192;28;20049;-67
2022/08/08 12:38:19;;;;;;;15.43;5.15;;;;;;;23.90;50.03;99992.38;5032091;28;20049;-67
2022/08/08 12:40:56;;;;;;;11.57;5.35;;;;;;;23.93;50.22;100002.94;5039436;28;20053;-67
2022/08/08 12:43:42;;;;;;;11.65;5.05;;;;;;;23.78;50.19;100001.34;5043128;28;20139;-67
2022/08/08 12:46:26;;;;;;;8.32;4.65;;;;;;;23.55;50.96;99993.28;5028675;28;20073;-67
2022/08/08 12:49:02;;;;;;;8.73;5.03;;;;;;;23.57;50.83;100001.41;5038449;28;20046;-67
2022/08/08 12:51:49;;;;;;;8.20;4.72;;;;;;;23.85;50.19;99992.81;5031532;28;20057;-66
2022/08/08 12:54:34;;;;;;;7.40;4.47;;;;;;;24.10;49.46;99996.41;5024080;28;20124;-67
2022/08/08 12:57:16;;;;;;;7.97;4.50;;;;;;;24.11;49.62;99998.03;5016841;28;20046;-74
2022/08/08 12:59:51;;;;;;;7.72;4.45;;;;;;;24.03;49.23;99997.25;5030368;28;20053;-74
2022/08/08 13:02:40;;;;;;;6.60;4.37;;;;;;;23.78;50.00;99995.66;5048872;28;20049;-74
2022/08/08 13:05:20;;;;;;;8.60;4.10;;;;;;;23.74;50.49;99990.00;5031432;28;20049;-74
2022/08/08 13:08:15;;;;;;;14.20;4.20;;;;;;;23.66;50.69;99991.25;5019202;28;20095;-74
2022/08/08 13:10:53;;;;;;;6.65;3.67;;;;;;;23.62;50.74;99993.25;5034201;28;20392;-75
2022/08/08 13:13:32;;;;;;;6.10;4.13;;;;;;;23.68;51.00;99990.84;5029422;28;20061;-74
2022/08/08 13:16:20;;;;;;;13.85;4.45;;;;;;;23.75;50.56;99990.81;5028936;28;20037;-67
2022/08/08 13:18:54;;;;;;;5.93;4.00;;;;;;;23.54;50.90;99991.69;5022956;28;20038;-67
2022/08/08 13:21:29;;;;;;;9.35;4.03;;;;;;;23.48;50.92;99996.16;5016067;28;20050;-67
2022/08/08 13:24:16;;;;;;;8.88;3.92;;;;;;;23.48;50.89;99998.19;5029645;28;20053;-67
2022/08/08 13:27:27;;;;;;;7.18;4.00;;;;;;;23.56;50.68;99999.78;5028349;28;20096;-67
2022/08/08 13:30:04;;;;;;;4.78;3.70;;;;;;;23.54;50.58;100007.91;5026030;28;20822;-66
2022/08/08 13:32:38;;;;;;;10.35;3.72;;;;;;;23.55;50.28;99998.16;5023606;28;20054;-67
2022/08/08 13:35:08;;;;;;;7.90;3.15;;;;;;;23.52;50.73;99998.97;5031146;28;20060;-75
2022/08/08 13:37:50;;;;;;;4.82;2.95;;;;;;;23.75;50.17;99990.81;5018054;28;20054;-75